createdAt,value
2022-08-22T00:02:32.898Z,3.70
2022-08-22T00:02:53.747Z,2.85
2022-08-22T00:02:54.636Z,3.57
2022-08-22T00:02:57.071Z,3.43
2022-08-22T00:03:00.233Z,3.23
2022-08-22T00:03:09.241Z,3.00
2022-08-22T00:03:10.730Z,4.30
2022-08-22T00:05:09.864Z,3.97
2022-08-22T00:07:46.924Z,4.27
2022-08-22T00:10:25.525Z,5.00
2022-08-22T00:12:59.671Z,4.07
2022-08-22T00:15:43.060Z,4.03
2022-08-22T00:18:16.258Z,4.00
2022-08-22T00:20:50.274Z,3.73
2022-08-22T00:23:23.798Z,4.30
2022-08-22T00:25:59.905Z,3.70
2022-08-22T00:28:35.769Z,3.57
2022-08-22T00:31:12.118Z,3.77
2022-08-22T00:33:46.205Z,4.30
2022-08-22T00:36:24.126Z,3.60
2022-08-22T00:38:59.130Z,3.77
2022-08-22T00:41:45.814Z,4.37
2022-08-22T00:44:41.466Z,3.90
2022-08-22T00:47:40.776Z,3.90
2022-08-22T00:50:34.592Z,3.90
2022-08-22T00:53:45.436Z,4.07
2022-08-22T00:56:48.695Z,3.60
2022-08-22T00:59:44.368Z,3.80
2022-08-22T01:02:31.801Z,4.00
2022-08-22T01:05:14.536Z,4.23
2022-08-22T01:07:56.993Z,4.17
2022-08-22T01:10:42.550Z,4.23
2022-08-22T01:13:32.574Z,3.80
2022-08-22T01:16:17.161Z,4.13
2022-08-22T01:19:10.879Z,4.27
2022-08-22T01:22:25.826Z,3.73
2022-08-22T01:25:26.773Z,4.03
2022-08-22T01:28:25.461Z,3.90
2022-08-22T01:31:36.441Z,3.90
2022-08-22T01:34:34.623Z,3.50
2022-08-22T01:37:28.074Z,3.67
2022-08-22T01:40:29.625Z,4.13
2022-08-22T01:43:18.247Z,3.40
2022-08-22T01:46:27.492Z,3.47
2022-08-22T01:49:03.851Z,3.70
2022-08-22T01:51:44.231Z,3.67
2022-08-22T01:54:15.587Z,4.17
2022-08-22T01:56:46.733Z,4.00
2022-08-22T01:59:22.035Z,3.40
2022-08-22T02:02:01.630Z,4.33
2022-08-22T02:04:41.059Z,3.27
2022-08-22T02:07:17.480Z,4.10
2022-08-22T02:09:53.555Z,3.90
2022-08-22T02:12:31.425Z,3.90
2022-08-22T02:15:14.093Z,3.83
2022-08-22T02:17:59.133Z,3.83
2022-08-22T02:20:34.662Z,3.87
2022-08-22T02:23:09.764Z,4.10
2022-08-22T02:25:51.537Z,4.37
2022-08-22T02:28:34.049Z,4.20
2022-08-22T02:31:07.219Z,4.27
2022-08-22T02:33:43.874Z,4.40
2022-08-22T02:36:18.633Z,4.20
2022-08-22T02:38:59.569Z,4.17
2022-08-22T02:41:32.728Z,4.23
2022-08-22T02:44:04.521Z,3.90
2022-08-22T02:46:46.995Z,4.37
2022-08-22T02:49:24.512Z,3.93
2022-08-22T02:52:03.417Z,4.00
2022-08-22T02:54:39.470Z,3.97
2022-08-22T02:57:14.201Z,4.03
2022-08-22T03:00:06.124Z,4.00
2022-08-22T03:03:04.873Z,3.97
2022-08-22T03:05:46.981Z,3.87
2022-08-22T03:08:23.706Z,4.13
2022-08-22T03:11:04.093Z,4.13
2022-08-22T03:13:41.661Z,4.43
2022-08-22T03:16:16.418Z,4.00
2022-08-22T03:18:49.635Z,4.37
2022-08-22T03:21:26.915Z,4.27
2022-08-22T03:24:01.329Z,4.27
2022-08-22T03:26:37.828Z,4.13
2022-08-22T03:29:11.544Z,4.53
2022-08-22T03:32:05.434Z,4.10
2022-08-22T03:34:33.878Z,4.33
2022-08-22T03:37:08.808Z,3.83
2022-08-22T03:39:45.179Z,4.77
2022-08-22T03:42:43.888Z,5.10
2022-08-22T03:45:35.542Z,4.40
2022-08-22T03:48:40.514Z,4.57
2022-08-22T03:51:23.262Z,4.20
2022-08-22T03:54:14.864Z,4.60
2022-08-22T03:57:19.774Z,5.00
2022-08-22T04:00:10.582Z,4.70
2022-08-22T04:03:12.206Z,4.57
2022-08-22T04:06:03.250Z,4.50
2022-08-22T04:09:06.828Z,4.40
2022-08-22T04:11:53.358Z,4.20
2022-08-22T04:14:54.368Z,4.10
2022-08-22T04:17:35.272Z,4.47
2022-08-22T04:20:27.223Z,4.50
2022-08-22T04:23:19.503Z,5.07
2022-08-22T04:25:52.046Z,4.90
2022-08-22T04:28:23.954Z,4.60
2022-08-22T04:30:56.259Z,4.73
2022-08-22T04:33:29.084Z,4.67
2022-08-22T04:36:03.165Z,4.47
2022-08-22T04:38:39.083Z,4.97
2022-08-22T04:41:14.665Z,5.27
2022-08-22T04:43:47.892Z,5.23
2022-08-22T04:46:23.748Z,5.67
2022-08-22T04:48:56.524Z,5.77
2022-08-22T04:51:30.710Z,5.90
2022-08-22T04:54:15.947Z,5.37
2022-08-22T04:56:55.826Z,5.00
2022-08-22T04:59:26.317Z,5.37
2022-08-22T05:01:58.791Z,4.87
2022-08-22T05:04:31.768Z,5.13
2022-08-22T05:07:06.519Z,4.53
2022-08-22T05:09:39.268Z,5.00
2022-08-22T05:12:12.021Z,5.13
2022-08-22T05:14:43.673Z,5.57
2022-08-22T05:17:18.748Z,5.67
2022-08-22T05:19:52.781Z,5.57
2022-08-22T05:22:25.175Z,5.37
2022-08-22T05:24:55.990Z,5.87
2022-08-22T05:27:27.297Z,6.37
2022-08-22T05:30:00.598Z,5.23
2022-08-22T05:32:31.560Z,6.00
2022-08-22T05:35:04.571Z,5.90
2022-08-22T05:37:39.385Z,6.57
2022-08-22T05:40:15.308Z,6.50
2022-08-22T05:42:45.027Z,6.47
2022-08-22T05:45:16.171Z,5.70
2022-08-22T05:47:47.373Z,6.30
2022-08-22T05:50:20.626Z,6.10
2022-08-22T05:53:01.036Z,6.13
2022-08-22T05:55:33.767Z,6.63
2022-08-22T05:58:31.546Z,5.93
2022-08-22T06:01:17.819Z,6.67
2022-08-22T06:03:57.891Z,6.60
2022-08-22T06:06:29.267Z,5.13
2022-08-22T06:09:02.634Z,5.47
2022-08-22T06:11:38.624Z,5.60
2022-08-22T06:14:15.036Z,5.40
2022-08-22T06:16:50.468Z,4.83
2022-08-22T06:19:20.350Z,5.20
2022-08-22T06:21:52.077Z,5.13
2022-08-22T06:24:25.917Z,5.40
2022-08-22T06:26:58.176Z,5.60
2022-08-22T06:29:36.163Z,4.93
2022-08-22T06:32:12.732Z,5.27
2022-08-22T06:34:43.506Z,5.47
2022-08-22T06:37:17.910Z,5.37
2022-08-22T06:39:49.902Z,5.33
2022-08-22T06:42:20.174Z,4.20
2022-08-22T06:44:51.132Z,4.50
2022-08-22T06:47:23.982Z,4.70
2022-08-22T06:49:57.203Z,4.60
2022-08-22T06:52:28.346Z,4.20
2022-08-22T06:55:01.348Z,4.53
2022-08-22T06:57:34.275Z,4.27
2022-08-22T07:00:07.056Z,4.70
2022-08-22T07:02:40.790Z,4.17
2022-08-22T07:05:15.028Z,3.67
2022-08-22T07:07:46.093Z,4.50
2022-08-22T07:10:15.830Z,3.47
2022-08-22T07:12:47.176Z,4.03
2022-08-22T07:15:34.398Z,4.60
2022-08-22T07:18:05.620Z,4.50
2022-08-22T07:20:38.658Z,3.60
2022-08-22T07:23:12.606Z,4.07
2022-08-22T07:25:51.750Z,4.60
2022-08-22T07:28:37.016Z,4.43
2022-08-22T07:31:24.762Z,4.53
2022-08-22T07:33:56.101Z,3.90
2022-08-22T07:36:33.089Z,4.53
2022-08-22T07:39:26.838Z,4.00
2022-08-22T07:42:06.912Z,3.77
2022-08-22T07:44:39.872Z,4.30
2022-08-22T07:47:13.244Z,3.50
2022-08-22T07:49:49.723Z,3.43
2022-08-22T07:52:18.635Z,3.50
2022-08-22T07:54:53.002Z,3.50
2022-08-22T07:57:26.964Z,4.18
2022-08-22T07:59:57.612Z,3.45
2022-08-22T08:02:26.722Z,3.40
2022-08-22T08:04:57.281Z,2.97
2022-08-22T08:07:29.866Z,3.15
2022-08-22T08:10:07.966Z,3.40
2022-08-22T08:12:42.399Z,3.22
2022-08-22T08:15:16.494Z,2.72
2022-08-22T08:17:45.156Z,3.00
2022-08-22T08:20:16.181Z,2.97
2022-08-22T08:22:46.026Z,3.20
2022-08-22T08:25:18.898Z,2.95
2022-08-22T08:28:04.834Z,3.47
2022-08-22T08:30:38.089Z,3.03
2022-08-22T08:33:25.611Z,2.90
2022-08-22T08:36:03.173Z,3.10
2022-08-22T08:38:37.556Z,2.95
2022-08-22T08:41:42.419Z,2.90
2022-08-22T08:44:23.298Z,3.30
2022-08-22T08:47:10.521Z,3.38
2022-08-22T08:49:55.776Z,2.50
2022-08-22T08:52:37.153Z,2.92
2022-08-22T08:55:22.740Z,2.72
2022-08-22T08:58:06.757Z,3.08
2022-08-22T09:00:55.791Z,2.78
2022-08-22T09:04:06.743Z,2.63
2022-08-22T09:07:04.323Z,2.75
2022-08-22T09:09:52.483Z,2.20
2022-08-22T09:12:56.485Z,3.10
2022-08-22T09:16:04.506Z,2.22
2022-08-22T09:18:49.738Z,3.50
2022-08-22T09:22:01.999Z,3.72
2022-08-22T09:24:56.356Z,3.13
2022-08-22T09:27:34.598Z,2.38
2022-08-22T09:30:11.520Z,2.50
2022-08-22T09:32:57.809Z,2.88
2022-08-22T09:35:34.202Z,4.97
2022-08-22T09:38:27.851Z,6.65
2022-08-22T09:41:02.474Z,2.88
2022-08-22T09:43:37.922Z,7.80
2022-08-22T09:46:18.662Z,3.15
2022-08-22T09:49:09.207Z,3.00
2022-08-22T09:51:43.134Z,2.90
2022-08-22T09:54:32.838Z,3.45
2022-08-22T09:57:22.675Z,2.75
2022-08-22T10:00:16.813Z,3.22
2022-08-22T10:02:56.530Z,3.03
2022-08-22T10:05:40.461Z,2.70
2022-08-22T10:08:34.526Z,3.03
2022-08-22T10:11:22.959Z,2.22
2022-08-22T10:14:03.005Z,2.08
2022-08-22T10:16:52.686Z,2.45
2022-08-22T10:19:27.187Z,2.50
2022-08-22T10:22:31.119Z,2.30
2022-08-22T10:25:25.044Z,2.60
2022-08-22T10:28:10.574Z,2.10
2022-08-22T10:30:48.626Z,2.20
2022-08-22T10:33:25.794Z,2.17
2022-08-22T10:36:04.790Z,2.28
2022-08-22T10:38:46.333Z,2.00
2022-08-22T10:41:24.328Z,2.10
2022-08-22T10:44:01.308Z,1.92
2022-08-22T10:46:37.997Z,1.90
2022-08-22T10:49:13.485Z,2.00
2022-08-22T10:51:47.542Z,2.03
2022-08-22T10:54:40.753Z,1.90
2022-08-22T10:57:29.817Z,1.92
2022-08-22T11:00:05.404Z,2.00
2022-08-22T11:02:49.512Z,1.75
2022-08-22T11:05:35.568Z,1.92
2022-08-22T11:08:23.057Z,2.08
2022-08-22T11:11:21.405Z,1.70
2022-08-22T11:14:28.014Z,1.63
2022-08-22T11:17:12.064Z,1.85
2022-08-22T11:20:11.741Z,1.95
2022-08-22T11:22:47.583Z,1.52
2022-08-22T11:25:36.221Z,1.85
2022-08-22T11:28:28.824Z,1.67
2022-08-22T11:31:07.387Z,1.80
2022-08-22T11:33:47.241Z,1.95
2022-08-22T11:36:37.299Z,1.95
2022-08-22T11:39:18.274Z,3.60
2022-08-22T11:41:54.265Z,1.70
2022-08-22T11:44:29.459Z,1.70
2022-08-22T11:47:00.827Z,2.00
2022-08-22T11:49:41.821Z,2.00
2022-08-22T11:52:19.616Z,1.80
2022-08-22T11:55:07.345Z,1.80
2022-08-22T11:57:39.579Z,1.80
2022-08-22T12:00:24.590Z,1.50
2022-08-22T12:03:17.089Z,1.85
2022-08-22T12:05:48.367Z,1.98
2022-08-22T12:08:27.121Z,1.98
2022-08-22T12:11:00.252Z,1.73
2022-08-22T12:13:39.696Z,1.70
2022-08-22T12:16:15.294Z,1.52
2022-08-22T12:18:56.006Z,2.00
2022-08-22T12:21:50.551Z,1.88
2022-08-22T12:24:28.613Z,1.40
2022-08-22T12:27:34.869Z,1.70
2022-08-22T12:30:14.400Z,1.73
2022-08-22T12:33:24.054Z,1.60
2022-08-22T12:36:04.830Z,1.70
2022-08-22T12:38:59.395Z,1.75
2022-08-22T12:42:04.146Z,1.80
2022-08-22T12:44:43.941Z,2.00
2022-08-22T12:47:27.773Z,2.53
2022-08-22T12:50:20.817Z,1.98
2022-08-22T12:53:08.811Z,2.13
2022-08-22T12:55:58.140Z,1.70
2022-08-22T12:58:40.505Z,1.60
2022-08-22T13:01:11.790Z,1.75
2022-08-22T13:03:45.815Z,1.63
2022-08-22T13:06:48.609Z,1.90
2022-08-22T13:09:34.572Z,1.48
2022-08-22T13:12:19.864Z,1.63
2022-08-22T13:14:51.976Z,1.92
2022-08-22T13:17:25.130Z,1.55
2022-08-22T13:20:02.859Z,2.10
2022-08-22T13:22:34.900Z,1.52
2022-08-22T13:25:08.609Z,1.60
2022-08-22T13:27:51.261Z,1.77
2022-08-22T13:30:37.512Z,1.60
2022-08-22T13:33:11.865Z,1.65
2022-08-22T13:35:52.188Z,1.55
2022-08-22T13:38:26.136Z,1.60
2022-08-22T13:40:57.368Z,1.90
2022-08-22T13:43:29.821Z,1.60
2022-08-22T13:46:01.893Z,1.60
2022-08-22T13:48:54.842Z,1.80
2022-08-22T13:51:31.953Z,1.92
2022-08-22T13:54:11.283Z,1.55
2022-08-22T13:56:53.804Z,1.67
2022-08-22T13:59:50.571Z,1.80
2022-08-22T14:02:46.879Z,1.90
2022-08-22T14:05:22.418Z,1.63
2022-08-22T14:07:58.311Z,1.85
2022-08-22T14:10:34.461Z,1.60
2022-08-22T14:13:34.570Z,1.33
2022-08-22T14:16:07.667Z,1.80
2022-08-22T14:18:46.287Z,1.30
2022-08-22T14:21:39.942Z,1.35
2022-08-22T14:24:17.193Z,1.80
2022-08-22T14:26:57.941Z,1.50
2022-08-22T14:29:32.883Z,1.58
2022-08-22T14:32:13.755Z,1.90
2022-08-22T14:34:45.591Z,1.50
2022-08-22T14:37:21.573Z,1.70
2022-08-22T14:39:59.618Z,1.38
2022-08-22T14:42:45.379Z,1.58
2022-08-22T14:45:22.674Z,1.95
2022-08-22T14:48:14.551Z,1.58
2022-08-22T14:50:52.951Z,1.45
2022-08-22T14:53:27.829Z,1.50
2022-08-22T14:55:59.529Z,2.15
2022-08-22T14:58:29.420Z,1.73
2022-08-22T15:01:08.002Z,1.58
2022-08-22T15:03:40.959Z,1.63
2022-08-22T15:06:30.467Z,2.17
2022-08-22T15:09:01.078Z,1.70
2022-08-22T15:11:42.036Z,2.53
2022-08-22T15:14:13.660Z,2.72
2022-08-22T15:16:47.268Z,1.80
2022-08-22T15:19:26.477Z,2.03
2022-08-22T15:22:11.343Z,2.55
2022-08-22T15:24:44.366Z,2.33
2022-08-22T15:27:13.297Z,2.00
2022-08-22T15:29:51.894Z,1.55
2022-08-22T15:32:26.555Z,1.85
2022-08-22T15:35:03.729Z,1.85
2022-08-22T15:37:34.308Z,1.40
2022-08-22T15:40:14.027Z,1.20
2022-08-22T15:42:45.159Z,1.33
2022-08-22T15:45:22.321Z,1.35
2022-08-22T15:47:54.515Z,1.65
2022-08-22T15:50:32.308Z,1.58
2022-08-22T15:53:14.551Z,1.42
2022-08-22T15:56:29.239Z,1.23
2022-08-22T15:59:53.568Z,1.60
2022-08-22T16:02:37.845Z,1.30
2022-08-22T16:05:30.965Z,1.58
2022-08-22T16:08:15.143Z,2.08
2022-08-22T16:10:50.295Z,1.60
2022-08-22T16:13:57.713Z,1.83
2022-08-22T16:17:08.222Z,1.67
2022-08-22T16:19:38.312Z,1.40
2022-08-22T16:22:20.708Z,1.85
2022-08-22T16:25:10.845Z,1.55
2022-08-22T16:27:53.784Z,2.53
2022-08-22T16:30:36.887Z,1.45
2022-08-22T16:33:07.243Z,1.55
2022-08-22T16:36:40.807Z,1.40
2022-08-22T16:39:13.957Z,1.40
2022-08-22T16:41:44.261Z,1.70
2022-08-22T16:44:22.883Z,1.50
2022-08-22T16:46:53.955Z,1.33
2022-08-22T16:49:28.708Z,1.65
2022-08-22T16:52:34.424Z,1.63
2022-08-22T16:55:06.976Z,2.10
2022-08-22T16:57:54.631Z,1.70
2022-08-22T17:00:39.264Z,1.48
2022-08-22T17:03:16.246Z,1.38
2022-08-22T17:05:52.637Z,1.92
2022-08-22T17:08:56.226Z,1.60
2022-08-22T17:11:38.761Z,1.80
2022-08-22T17:14:23.092Z,1.70
2022-08-22T17:17:06.323Z,1.58
2022-08-22T17:19:49.013Z,1.73
2022-08-22T17:22:54.811Z,1.60
2022-08-22T17:26:33.450Z,1.73
2022-08-22T17:29:32.610Z,1.85
2022-08-22T17:33:03.466Z,1.50
2022-08-22T17:36:00.701Z,1.98
2022-08-22T17:38:59.966Z,1.63
2022-08-22T17:41:40.802Z,1.58
2022-08-22T17:45:14.368Z,1.60
2022-08-22T17:47:59.156Z,1.70
2022-08-22T17:50:46.979Z,1.70
2022-08-22T17:53:42.353Z,1.85
2022-08-22T17:57:05.817Z,1.65
2022-08-22T17:59:50.988Z,2.35
2022-08-22T18:02:26.509Z,1.95
2022-08-22T18:05:29.914Z,1.60
2022-08-22T18:08:38.691Z,1.80
2022-08-22T18:11:40.440Z,1.60
2022-08-22T18:18:12.613Z,2.92
2022-08-22T18:20:54.368Z,5.18
2022-08-22T18:23:39.781Z,3.00
2022-08-22T18:26:37.308Z,1.67
2022-08-22T18:29:23.948Z,1.83
2022-08-22T18:32:13.921Z,1.40
2022-08-22T18:35:14.459Z,1.70
2022-08-22T18:38:47.330Z,2.00
2022-08-22T18:42:18.421Z,1.98
2022-08-22T18:44:50.610Z,1.80
2022-08-22T18:47:50.177Z,1.70
2022-08-22T18:51:13.932Z,1.90
2022-08-22T18:53:51.226Z,2.22
2022-08-22T18:57:02.426Z,2.15
2022-08-22T19:00:11.352Z,2.20
2022-08-22T19:03:31.129Z,2.10
2022-08-22T19:06:57.472Z,1.70
2022-08-22T19:10:13.744Z,2.50
2022-08-22T19:13:41.242Z,2.33
2022-08-22T19:17:15.392Z,2.10
2022-08-22T19:20:14.672Z,1.90
2022-08-22T19:23:13.003Z,2.65
2022-08-22T19:26:33.479Z,2.30
2022-08-22T19:30:09.170Z,2.83
2022-08-22T19:33:09.931Z,2.60
2022-08-22T19:36:10.354Z,2.92
2022-08-22T19:39:09.047Z,2.10
2022-08-22T19:42:27.781Z,2.10
2022-08-22T19:46:17.780Z,2.60
2022-08-22T19:48:28.417Z,2.20
2022-08-22T19:51:13.419Z,2.27
2022-08-22T19:53:52.429Z,2.33
2022-08-22T19:56:35.631Z,2.20
2022-08-22T19:59:19.409Z,2.47
2022-08-22T20:01:56.408Z,1.90
2022-08-22T20:05:02.177Z,2.30
2022-08-22T20:07:39.808Z,2.47
2022-08-22T20:11:25.419Z,2.20
2022-08-22T20:13:56.174Z,1.93
2022-08-22T20:17:09.227Z,2.37
2022-08-22T20:23:26.379Z,2.30
2022-08-22T20:26:43.571Z,2.13
2022-08-22T20:29:38.495Z,2.10
2022-08-22T20:32:27.518Z,2.27
2022-08-22T20:38:15.535Z,2.40
2022-08-22T20:40:57.728Z,2.10
2022-08-22T20:43:38.694Z,2.00
2022-08-22T20:46:24.435Z,2.50
2022-08-22T20:49:03.246Z,2.27
2022-08-22T20:51:33.678Z,2.00
2022-08-22T20:54:10.435Z,2.17
2022-08-22T20:56:53.162Z,2.17
2022-08-22T20:59:31.102Z,2.37
2022-08-22T21:02:11.793Z,2.17
2022-08-22T21:04:48.658Z,2.30
2022-08-22T21:07:23.150Z,2.17
2022-08-22T21:10:22.248Z,2.30
2022-08-22T21:13:05.977Z,2.30
2022-08-22T21:15:35.782Z,2.80
2022-08-22T21:18:04.154Z,2.40
2022-08-22T21:20:36.354Z,2.57
2022-08-22T21:23:09.224Z,2.20
2022-08-22T21:25:51.417Z,2.17
2022-08-22T21:28:35.723Z,2.43
2022-08-22T21:31:14.588Z,2.30
2022-08-22T21:33:44.884Z,2.30
2022-08-22T21:36:22.120Z,2.47
2022-08-22T21:38:53.445Z,2.00
2022-08-22T21:41:33.415Z,2.53
2022-08-22T21:44:20.523Z,2.57
2022-08-22T21:46:48.467Z,2.50
2022-08-22T21:49:25.017Z,2.20
2022-08-22T21:51:54.412Z,2.47
2022-08-22T21:54:35.591Z,2.30
2022-08-22T21:57:19.921Z,2.30
2022-08-22T21:59:59.348Z,2.70
2022-08-22T22:02:36.798Z,2.53
2022-08-22T22:05:09.436Z,2.43
2022-08-22T22:07:45.886Z,1.90
2022-08-22T22:10:16.886Z,2.57
2022-08-22T22:12:46.635Z,2.90
2022-08-22T22:15:20.146Z,2.40
2022-08-22T22:17:48.166Z,2.83
2022-08-22T22:20:18.327Z,2.70
2022-08-22T22:22:48.341Z,2.27
2022-08-22T22:25:39.684Z,2.50
2022-08-22T22:28:08.339Z,2.40
2022-08-22T22:30:38.123Z,2.13
2022-08-22T22:33:06.309Z,2.50
2022-08-22T22:35:39.601Z,2.63
2022-08-22T22:38:09.681Z,2.30
2022-08-22T22:40:39.418Z,2.40
2022-08-22T22:43:07.197Z,2.60
2022-08-22T22:45:35.434Z,2.50
2022-08-22T22:48:03.785Z,2.37
2022-08-22T22:50:31.803Z,2.20
2022-08-22T22:53:00.327Z,2.30
2022-08-22T22:55:29.555Z,2.40
2022-08-22T22:57:59.569Z,2.10
2022-08-22T23:00:30.781Z,2.57
2022-08-22T23:03:00.967Z,2.40
2022-08-22T23:05:29.620Z,2.43
2022-08-22T23:07:58.126Z,2.10
2022-08-22T23:10:26.541Z,2.53
2022-08-22T23:12:55.777Z,2.30
2022-08-22T23:15:23.649Z,2.43
2022-08-22T23:17:52.095Z,2.73
2022-08-22T23:20:20.320Z,2.67
2022-08-22T23:22:51.377Z,2.37
2022-08-22T23:25:19.295Z,2.97
2022-08-22T23:27:48.723Z,2.50
2022-08-22T23:30:22.490Z,2.77
2022-08-22T23:32:50.343Z,2.70
2022-08-22T23:35:18.370Z,2.83
2022-08-22T23:37:46.293Z,2.40
2022-08-22T23:40:14.122Z,2.63
2022-08-22T23:42:42.047Z,2.40
2022-08-22T23:45:10.567Z,2.50
2022-08-22T23:47:39.929Z,2.43
2022-08-22T23:50:08.408Z,2.80
2022-08-22T23:52:36.290Z,2.47
2022-08-22T23:55:04.181Z,3.17
2022-08-22T23:57:32.339Z,2.80
